createdAt,value
2023-05-10T00:01:22.331Z,0.68
2023-05-10T00:03:49.250Z,0.50
2023-05-10T00:06:16.331Z,2.85
2023-05-10T00:08:43.132Z,0.60
2023-05-10T00:11:09.926Z,0.68
2023-05-10T00:13:36.754Z,0.50
2023-05-10T00:16:03.789Z,0.80
2023-05-10T00:18:30.624Z,0.80
2023-05-10T00:20:57.369Z,0.70
2023-05-10T00:23:24.157Z,0.70
2023-05-10T00:25:51.165Z,0.60
2023-05-10T00:28:17.927Z,0.90
2023-05-10T00:30:44.683Z,0.90
2023-05-10T00:33:12.428Z,0.68
2023-05-10T00:35:39.415Z,9.68
2023-05-10T00:38:06.260Z,0.70
2023-05-10T00:40:33.103Z,0.90
2023-05-10T00:43:04.584Z,0.70
2023-05-10T00:45:33.399Z,1.15
2023-05-10T00:48:04.655Z,0.95
2023-05-10T00:50:33.548Z,1.00
2023-05-10T00:53:01.634Z,1.05
2023-05-10T00:55:28.835Z,1.20
2023-05-10T00:57:56.693Z,1.13
2023-05-10T01:00:23.773Z,1.05
2023-05-10T01:02:51.195Z,1.30
2023-05-10T01:05:18.322Z,1.17
2023-05-10T01:07:45.173Z,0.80
2023-05-10T01:10:12.324Z,1.23
2023-05-10T01:12:41.873Z,1.33
2023-05-10T01:15:10.125Z,1.33
2023-05-10T01:17:39.277Z,0.82
2023-05-10T01:20:09.278Z,1.25
2023-05-10T01:23:10.344Z,1.17
2023-05-10T01:26:08.324Z,1.55
2023-05-10T01:31:55.630Z,1.05
2023-05-10T01:34:43.169Z,1.30
2023-05-10T01:37:14.226Z,0.98
2023-05-10T01:39:46.082Z,1.63
2023-05-10T01:42:20.817Z,1.33
2023-05-10T01:45:01.587Z,1.60
2023-05-10T01:47:47.219Z,1.67
2023-05-10T01:50:21.502Z,1.50
2023-05-10T01:52:59.977Z,1.65
2023-05-10T01:55:31.458Z,1.20
2023-05-10T01:58:14.555Z,2.10
2023-05-10T02:00:45.183Z,1.27
2023-05-10T02:03:13.571Z,3.40
2023-05-10T02:05:42.310Z,1.92
2023-05-10T02:08:09.851Z,1.58
2023-05-10T02:10:38.501Z,1.73
2023-05-10T02:13:08.167Z,2.30
2023-05-10T02:15:35.566Z,2.05
2023-05-10T02:20:33.310Z,1.73
2023-05-10T02:23:01.724Z,2.03
2023-05-10T02:25:30.825Z,1.90
2023-05-10T02:28:00.862Z,1.67
2023-05-10T02:30:28.549Z,1.67
2023-05-10T02:32:56.738Z,2.00
2023-05-10T02:35:26.338Z,1.80
2023-05-10T02:37:53.896Z,1.33
2023-05-10T02:40:22.685Z,1.83
2023-05-10T02:42:53.151Z,1.52
2023-05-10T02:45:24.545Z,1.17
2023-05-10T02:47:51.569Z,0.90
2023-05-10T02:50:18.835Z,1.00
2023-05-10T02:55:23.270Z,1.00
2023-05-10T02:57:56.515Z,1.13
2023-05-10T03:00:23.377Z,0.60
2023-05-10T03:02:50.187Z,0.60
2023-05-10T03:05:17.125Z,0.52
2023-05-10T03:07:44.433Z,0.50
2023-05-10T03:10:11.746Z,0.70
2023-05-10T03:12:46.306Z,0.50
2023-05-10T03:15:23.149Z,0.60
2023-05-10T03:17:55.677Z,0.50
2023-05-10T03:20:37.756Z,0.50
2023-05-10T03:23:21.779Z,0.57
2023-05-10T03:25:51.606Z,0.55
2023-05-10T03:28:21.318Z,0.60
2023-05-10T03:30:48.484Z,0.63
2023-05-10T03:33:15.554Z,0.57
2023-05-10T03:35:46.683Z,0.60
2023-05-10T03:38:14.466Z,1.00
2023-05-10T03:40:41.534Z,0.80
2023-05-10T03:45:35.692Z,1.30
2023-05-10T03:48:02.494Z,1.95
2023-05-10T03:50:29.614Z,2.20
2023-05-10T03:52:56.465Z,3.25
2023-05-10T03:55:23.481Z,2.17
2023-05-10T03:57:54.788Z,3.47
2023-05-10T04:00:22.754Z,2.92
2023-05-10T04:02:52.780Z,2.30
2023-05-10T04:05:20.652Z,6.25
2023-05-10T04:07:48.055Z,2.83
2023-05-10T04:12:41.956Z,2.05
2023-05-10T04:15:09.500Z,2.50
2023-05-10T04:17:36.359Z,2.90
2023-05-10T04:20:04.442Z,2.47
2023-05-10T04:22:31.361Z,3.35
2023-05-10T04:24:58.113Z,2.92
2023-05-10T04:27:24.892Z,2.88
2023-05-10T04:29:51.947Z,1.90
2023-05-10T04:32:18.800Z,2.50
2023-05-10T04:34:45.569Z,2.47
2023-05-10T04:37:12.417Z,1.63
2023-05-10T04:39:40.967Z,3.70
2023-05-10T04:42:09.304Z,1.73
2023-05-10T04:44:37.039Z,2.65
2023-05-10T04:47:05.950Z,1.75
2023-05-10T04:49:33.175Z,2.08
2023-05-10T04:51:59.931Z,2.50
2023-05-10T04:54:26.750Z,2.88
2023-05-10T04:56:53.524Z,2.58
2023-05-10T04:59:20.283Z,2.53
2023-05-10T05:01:47.158Z,1.77
2023-05-10T05:04:15.416Z,2.80
2023-05-10T05:06:42.236Z,2.53
2023-05-10T05:09:08.985Z,3.47
2023-05-10T05:11:35.777Z,3.47
2023-05-10T05:14:02.560Z,3.92
2023-05-10T05:16:31.831Z,4.25
2023-05-10T05:18:58.691Z,3.53
2023-05-10T05:21:27.711Z,4.65
2023-05-10T05:23:54.537Z,4.07
2023-05-10T05:26:21.287Z,4.68
2023-05-10T05:28:49.571Z,3.40
2023-05-10T05:31:16.539Z,5.20
2023-05-10T05:33:43.334Z,5.22
2023-05-10T05:36:10.228Z,5.72
2023-05-10T05:38:37.001Z,6.10
2023-05-10T05:41:03.988Z,4.65
2023-05-10T05:43:30.907Z,5.43
2023-05-10T05:45:59.088Z,5.75
2023-05-10T05:48:26.103Z,5.40
2023-05-10T05:50:56.728Z,6.57
2023-05-10T05:53:24.336Z,6.88
2023-05-10T05:55:59.317Z,5.50
2023-05-10T05:58:26.824Z,6.28
2023-05-10T06:00:53.653Z,7.75
2023-05-10T06:03:21.105Z,5.78
2023-05-10T06:05:48.229Z,5.95
2023-05-10T06:08:15.155Z,6.60
2023-05-10T06:10:42.030Z,7.80
2023-05-10T06:13:08.920Z,10.70
2023-05-10T06:15:35.761Z,6.53
2023-05-10T06:18:02.642Z,7.20
2023-05-10T06:20:29.551Z,7.18
2023-05-10T06:22:56.352Z,10.25
2023-05-10T06:25:23.180Z,8.05
2023-05-10T06:27:52.876Z,9.48
2023-05-10T06:30:21.139Z,8.75
2023-05-10T06:35:15.010Z,5.82
2023-05-10T06:37:42.209Z,8.30
2023-05-10T06:40:10.235Z,7.05
2023-05-10T06:42:37.166Z,7.90
2023-05-10T06:45:04.376Z,9.02
2023-05-10T06:47:31.498Z,11.82
2023-05-10T06:49:58.420Z,9.68
2023-05-10T06:52:25.297Z,7.30
2023-05-10T06:54:52.165Z,9.18
2023-05-10T06:57:30.628Z,7.50
2023-05-10T06:59:59.774Z,8.07
2023-05-10T07:02:27.084Z,8.68
2023-05-10T07:12:16.166Z,8.63
2023-05-10T07:14:43.587Z,11.55
2023-05-10T07:19:37.926Z,8.52
2023-05-10T07:22:04.855Z,13.25
2023-05-10T07:24:32.462Z,7.68
2023-05-10T07:26:59.382Z,8.98
2023-05-10T07:29:26.326Z,15.77
2023-05-10T07:31:54.109Z,9.13
2023-05-10T07:34:22.379Z,8.77
2023-05-10T07:36:49.338Z,10.55
2023-05-10T07:39:21.340Z,9.23
2023-05-10T07:44:21.227Z,7.25
2023-05-10T07:46:49.152Z,9.65
2023-05-10T07:49:17.244Z,6.28
2023-05-10T07:51:44.259Z,7.93
2023-05-10T07:54:11.182Z,6.15
2023-05-10T07:56:38.027Z,5.32
2023-05-10T07:59:05.970Z,7.25
2023-05-10T08:01:34.074Z,4.95
2023-05-10T08:04:01.821Z,7.35
2023-05-10T08:06:30.677Z,7.05
2023-05-10T08:08:57.552Z,7.05
2023-05-10T08:11:24.486Z,8.95
2023-05-10T08:13:52.616Z,10.80
2023-05-10T08:16:19.775Z,10.25
2023-05-10T08:18:48.000Z,8.60
2023-05-10T08:21:16.332Z,10.00
2023-05-10T08:23:44.657Z,7.63
2023-05-10T08:26:11.848Z,7.47
2023-05-10T08:28:38.756Z,7.93
2023-05-10T08:31:06.385Z,7.10
2023-05-10T08:33:33.267Z,5.35
2023-05-10T08:36:00.266Z,5.38
2023-05-10T08:38:27.093Z,4.40
2023-05-10T08:40:57.863Z,4.68
2023-05-10T08:43:27.903Z,3.78
2023-05-10T08:45:56.444Z,3.38
2023-05-10T08:48:25.663Z,8.68
2023-05-10T08:50:55.971Z,3.40
2023-05-10T08:53:26.126Z,3.83
2023-05-10T08:55:53.492Z,3.78
2023-05-10T09:00:49.973Z,5.43
2023-05-10T09:03:17.052Z,4.00
2023-05-10T09:05:45.551Z,2.80
2023-05-10T09:08:13.847Z,3.65
2023-05-10T09:10:41.203Z,3.05
2023-05-10T09:15:35.475Z,3.40
2023-05-10T09:18:03.410Z,3.22
2023-05-10T09:20:30.323Z,3.67
2023-05-10T09:22:57.173Z,4.30
2023-05-10T09:25:23.995Z,4.68
2023-05-10T09:27:51.028Z,4.53
2023-05-10T09:30:28.225Z,4.43
2023-05-10T09:32:56.279Z,5.80
2023-05-10T09:35:29.359Z,4.60
2023-05-10T09:37:58.518Z,3.50
2023-05-10T09:40:28.055Z,4.25
2023-05-10T09:42:58.205Z,3.53
2023-05-10T09:45:27.211Z,3.70
2023-05-10T09:47:54.240Z,2.88
2023-05-10T09:50:21.782Z,2.03
2023-05-10T09:52:51.221Z,2.28
2023-05-10T09:55:20.677Z,1.90
2023-05-10T09:57:49.340Z,1.63
2023-05-10T10:00:21.527Z,2.78
2023-05-10T10:02:59.402Z,1.92
2023-05-10T10:05:33.142Z,1.48
2023-05-10T10:08:01.067Z,1.70
2023-05-10T10:10:29.009Z,2.30
2023-05-10T10:12:56.687Z,2.17
2023-05-10T10:15:24.472Z,2.28
2023-05-10T10:17:52.304Z,1.80
2023-05-10T10:20:21.193Z,1.95
2023-05-10T10:22:48.829Z,1.50
2023-05-10T10:25:18.135Z,2.03
2023-05-10T10:27:54.281Z,2.22
2023-05-10T10:30:35.821Z,1.92
2023-05-10T10:33:27.150Z,1.85
2023-05-10T10:35:58.482Z,2.40
2023-05-10T10:38:26.008Z,1.95
2023-05-10T10:41:04.214Z,2.25
2023-05-10T10:43:31.269Z,1.88
2023-05-10T10:46:15.384Z,1.80
2023-05-10T10:48:48.557Z,2.88
2023-05-10T10:51:15.447Z,4.65
2023-05-10T10:53:43.545Z,3.40
2023-05-10T10:56:12.362Z,2.72
2023-05-10T10:58:40.146Z,2.80
2023-05-10T11:01:20.600Z,3.58
2023-05-10T11:03:59.935Z,4.10
2023-05-10T11:06:34.272Z,5.30
2023-05-10T11:09:07.421Z,4.32
2023-05-10T11:11:36.039Z,5.00
2023-05-10T11:14:09.034Z,4.25
2023-05-10T11:16:45.720Z,4.07
2023-05-10T11:19:14.083Z,4.22
2023-05-10T11:21:49.729Z,2.97
2023-05-10T11:24:23.111Z,3.35
2023-05-10T11:26:54.224Z,3.83
2023-05-10T11:29:21.281Z,3.63
2023-05-10T11:31:49.418Z,3.40
2023-05-10T11:34:27.615Z,4.55
2023-05-10T11:36:56.049Z,2.63
2023-05-10T11:39:30.321Z,2.65
2023-05-10T11:41:58.404Z,2.00
2023-05-10T11:44:31.450Z,2.63
2023-05-10T11:47:02.139Z,2.33
2023-05-10T11:49:29.049Z,2.45
2023-05-10T11:52:06.258Z,2.60
2023-05-10T11:54:34.718Z,2.85
2023-05-10T11:57:01.778Z,2.83
2023-05-10T11:59:28.586Z,3.50
2023-05-10T12:01:56.059Z,3.25
2023-05-10T12:04:23.041Z,4.00
2023-05-10T12:06:50.033Z,3.33
2023-05-10T12:09:19.118Z,4.28
2023-05-10T12:11:47.809Z,4.32
2023-05-10T12:14:16.327Z,7.38
2023-05-10T12:16:44.452Z,4.22
2023-05-10T12:19:11.715Z,3.47
2023-05-10T12:24:07.202Z,3.72
2023-05-10T12:26:35.854Z,3.55
2023-05-10T12:29:16.858Z,2.47
2023-05-10T12:32:00.035Z,3.20
2023-05-10T12:34:31.034Z,3.25
2023-05-10T12:36:58.065Z,2.25
2023-05-10T12:39:25.611Z,3.05
2023-05-10T12:41:52.972Z,2.45
2023-05-10T12:44:19.847Z,2.65
2023-05-10T12:46:46.654Z,2.35
2023-05-10T12:49:13.451Z,1.95
2023-05-10T12:51:40.357Z,3.55
2023-05-10T12:54:07.182Z,3.25
2023-05-10T12:56:33.951Z,2.85
2023-05-10T12:59:00.905Z,3.22
2023-05-10T13:01:27.761Z,3.00
2023-05-10T13:03:54.603Z,2.50
2023-05-10T13:06:21.420Z,2.85
2023-05-10T13:08:48.209Z,2.50
2023-05-10T13:11:17.826Z,2.28
2023-05-10T13:13:44.628Z,2.05
2023-05-10T13:16:11.430Z,2.55
2023-05-10T13:18:38.299Z,1.98
2023-05-10T13:21:06.309Z,2.17
2023-05-10T13:23:33.135Z,1.95
2023-05-10T13:25:59.971Z,2.05
2023-05-10T13:28:27.310Z,2.45
2023-05-10T13:30:54.359Z,2.40
2023-05-10T13:33:21.234Z,2.00
2023-05-10T13:35:48.073Z,2.10
2023-05-10T13:38:14.986Z,1.70
2023-05-10T13:40:41.808Z,2.58
2023-05-10T13:43:08.696Z,1.73
2023-05-10T13:45:35.475Z,2.00
2023-05-10T13:48:02.484Z,2.10
2023-05-10T13:55:23.255Z,2.53
2023-05-10T13:57:50.098Z,2.42
2023-05-10T14:00:17.381Z,1.95
2023-05-10T14:02:44.432Z,2.40
2023-05-10T14:07:38.367Z,2.67
2023-05-10T14:10:05.558Z,2.22
2023-05-10T14:12:32.380Z,2.22
2023-05-10T14:14:59.295Z,2.30
2023-05-10T14:17:26.094Z,2.50
2023-05-10T14:19:53.788Z,2.58
2023-05-10T14:22:20.712Z,2.88
2023-05-10T14:24:47.816Z,2.40
2023-05-10T14:29:42.151Z,2.15
2023-05-10T14:34:35.924Z,2.60
2023-05-10T14:37:04.159Z,1.52
2023-05-10T14:39:31.214Z,1.20
2023-05-10T14:44:24.958Z,1.00
2023-05-10T14:46:52.414Z,0.80
2023-05-10T14:49:19.195Z,0.77
2023-05-10T14:51:46.551Z,1.90
2023-05-10T14:54:13.329Z,0.80
2023-05-10T14:56:42.295Z,0.82
2023-05-10T14:59:10.173Z,0.93
2023-05-10T15:01:38.804Z,0.80
2023-05-10T15:04:06.180Z,0.93
2023-05-10T15:06:34.916Z,0.75
2023-05-10T15:09:04.145Z,0.75
2023-05-10T15:11:30.986Z,0.73
2023-05-10T15:13:57.837Z,0.80
2023-05-10T15:16:24.958Z,0.60
2023-05-10T15:18:52.174Z,0.70
2023-05-10T15:23:45.657Z,2.88
2023-05-10T15:26:12.427Z,0.70
2023-05-10T15:28:39.279Z,1.45
2023-05-10T15:31:06.224Z,0.65
2023-05-10T15:36:00.170Z,0.70
2023-05-10T15:38:27.009Z,0.85
2023-05-10T15:40:58.552Z,0.60
2023-05-10T15:43:25.546Z,0.70
2023-05-10T15:48:19.176Z,0.70
2023-05-10T15:50:46.114Z,1.00
2023-05-10T15:53:12.911Z,0.90
2023-05-10T15:55:40.131Z,0.73
2023-05-10T15:58:07.061Z,0.90
2023-05-10T16:03:00.916Z,0.70
2023-05-10T16:05:31.841Z,1.02
2023-05-10T16:07:58.799Z,0.90
2023-05-10T16:10:25.679Z,0.60
2023-05-10T16:12:54.237Z,1.20
2023-05-10T16:15:24.161Z,1.27
2023-05-10T16:17:51.414Z,0.88
2023-05-10T16:20:18.583Z,1.20
2023-05-10T16:22:45.443Z,1.08
2023-05-10T16:25:13.630Z,0.90
2023-05-10T16:27:41.056Z,1.20
2023-05-10T16:30:08.675Z,1.17
2023-05-10T16:32:35.590Z,1.23
2023-05-10T16:35:02.642Z,1.40
2023-05-10T16:44:53.396Z,1.00
2023-05-10T16:47:20.623Z,1.13
2023-05-10T16:49:47.438Z,1.15
2023-05-10T16:52:14.268Z,1.10
2023-05-10T16:54:41.264Z,1.20
2023-05-10T16:57:08.575Z,1.40
2023-05-10T16:59:35.396Z,1.30
2023-05-10T17:02:02.316Z,1.50
2023-05-10T17:04:29.163Z,1.30
2023-05-10T17:06:56.072Z,3.80
2023-05-10T17:09:23.180Z,1.60
2023-05-10T17:11:50.032Z,1.73
2023-05-10T17:14:16.891Z,1.90
2023-05-10T17:16:43.753Z,1.90
2023-05-10T17:19:11.150Z,1.88
2023-05-10T17:21:38.038Z,1.83
2023-05-10T17:24:05.124Z,1.30
2023-05-10T17:26:32.454Z,1.77
2023-05-10T17:28:59.344Z,1.67
2023-05-10T17:31:27.716Z,2.33
2023-05-10T17:33:54.602Z,1.95
2023-05-10T17:36:21.695Z,3.17
2023-05-10T17:38:48.583Z,1.40
2023-05-10T17:41:15.383Z,2.30
2023-05-10T17:43:42.286Z,4.93
2023-05-10T17:46:09.365Z,1.60
2023-05-10T17:48:37.012Z,2.72
2023-05-10T17:51:04.366Z,2.72
2023-05-10T17:53:31.296Z,2.42
2023-05-10T17:55:58.963Z,2.25
2023-05-10T17:58:25.872Z,2.63
2023-05-10T18:00:53.197Z,3.92
2023-05-10T18:03:20.504Z,2.80
2023-05-10T18:08:14.974Z,2.97
2023-05-10T18:13:09.296Z,2.97
2023-05-10T18:15:36.088Z,3.17
2023-05-10T18:18:06.022Z,3.15
2023-05-10T18:20:33.253Z,2.65
2023-05-10T18:23:00.048Z,2.53
2023-05-10T18:25:27.198Z,2.42
2023-05-10T18:27:54.222Z,3.67
2023-05-10T18:30:22.439Z,4.13
2023-05-10T18:32:49.348Z,3.15
2023-05-10T18:35:16.306Z,3.05
2023-05-10T18:37:43.365Z,3.65
2023-05-10T18:40:12.449Z,4.30
2023-05-10T18:42:39.390Z,3.13
2023-05-10T18:45:07.349Z,3.67
2023-05-10T18:47:34.323Z,4.05
2023-05-10T18:50:02.720Z,4.20
2023-05-10T18:52:29.564Z,3.63
2023-05-10T18:54:56.537Z,4.40
2023-05-10T18:57:23.991Z,4.68
2023-05-10T18:59:50.948Z,4.25
2023-05-10T19:02:17.888Z,4.43
2023-05-10T19:04:44.721Z,4.00
2023-05-10T19:07:11.664Z,4.35
2023-05-10T19:09:38.549Z,4.13
2023-05-10T19:12:05.571Z,5.00
2023-05-10T19:14:32.465Z,4.60
2023-05-10T19:16:59.269Z,4.28
2023-05-10T19:19:26.168Z,4.65
2023-05-10T19:21:54.252Z,5.00
2023-05-10T19:24:23.316Z,5.00
2023-05-10T19:26:50.090Z,4.80
2023-05-10T19:29:17.007Z,7.07
2023-05-10T19:31:44.984Z,5.78
2023-05-10T19:34:12.181Z,4.63
2023-05-10T19:36:39.071Z,5.10
2023-05-10T19:39:05.887Z,4.18
2023-05-10T19:41:32.783Z,4.38
2023-05-10T19:43:59.730Z,13.43
2023-05-10T19:46:26.918Z,4.78
2023-05-10T19:48:53.813Z,5.63
2023-05-10T19:51:20.580Z,4.43
2023-05-10T19:53:47.376Z,4.65
2023-05-10T19:56:14.345Z,4.32
2023-05-10T19:58:41.107Z,3.83
2023-05-10T20:01:08.178Z,3.65
2023-05-10T20:03:36.125Z,4.07
2023-05-10T20:06:03.869Z,4.13
2023-05-10T20:08:31.250Z,3.47
2023-05-10T20:11:00.476Z,4.00
2023-05-10T20:13:27.205Z,3.53
2023-05-10T20:15:58.275Z,3.53
2023-05-10T20:18:25.826Z,3.55
2023-05-10T20:20:57.564Z,4.13
2023-05-10T20:23:24.400Z,4.07
2023-05-10T20:25:51.530Z,3.33
2023-05-10T20:28:23.107Z,3.60
2023-05-10T20:30:54.334Z,7.40
2023-05-10T20:33:22.138Z,3.97
2023-05-10T20:35:50.285Z,3.97
2023-05-10T20:38:17.994Z,3.95
2023-05-10T20:40:44.911Z,3.55
2023-05-10T20:43:11.871Z,3.40
2023-05-10T20:45:38.772Z,4.43
2023-05-10T20:48:05.741Z,3.97
2023-05-10T20:50:32.544Z,3.65
2023-05-10T20:53:00.520Z,3.88
2023-05-10T20:55:27.955Z,3.72
2023-05-10T21:00:21.568Z,3.53
2023-05-10T21:02:48.445Z,4.03
2023-05-10T21:05:16.891Z,3.90
2023-05-10T21:07:43.691Z,3.10
2023-05-10T21:10:11.373Z,4.00
2023-05-10T21:12:38.176Z,3.55
2023-05-10T21:15:05.427Z,4.20
2023-05-10T21:17:32.216Z,3.25
2023-05-10T21:19:59.045Z,4.75
2023-05-10T21:22:26.389Z,3.83
2023-05-10T21:27:19.852Z,3.22
2023-05-10T21:29:46.614Z,3.53
2023-05-10T21:32:14.742Z,3.33
2023-05-10T21:34:41.774Z,3.88
2023-05-10T21:37:08.754Z,3.53
2023-05-10T21:39:35.875Z,3.53
2023-05-10T21:42:03.506Z,3.22
2023-05-10T21:44:31.348Z,2.83
2023-05-10T21:46:58.184Z,3.20
2023-05-10T21:49:25.006Z,3.50
2023-05-10T21:51:52.038Z,7.22
2023-05-10T21:54:18.919Z,2.75
2023-05-10T21:56:45.796Z,2.95
2023-05-10T21:59:12.605Z,3.53
2023-05-10T22:01:39.428Z,3.55
2023-05-10T22:04:06.209Z,3.40
2023-05-10T22:06:33.021Z,3.75
2023-05-10T22:08:59.874Z,4.57
2023-05-10T22:11:27.342Z,3.38
2023-05-10T22:13:54.165Z,3.75
2023-05-10T22:16:21.016Z,3.17
2023-05-10T22:18:47.893Z,4.63
2023-05-10T22:21:14.768Z,3.83
2023-05-10T22:23:42.025Z,4.20
2023-05-10T22:26:08.801Z,3.10
2023-05-10T22:28:35.636Z,3.88
2023-05-10T22:31:02.457Z,4.45
2023-05-10T22:33:29.325Z,4.20
2023-05-10T22:35:56.132Z,4.25
2023-05-10T22:38:22.939Z,3.88
2023-05-10T22:40:49.746Z,4.00
2023-05-10T22:43:17.327Z,3.97
2023-05-10T22:45:44.273Z,4.75
2023-05-10T22:48:11.170Z,3.83
2023-05-10T22:50:38.061Z,4.57
2023-05-10T22:53:04.907Z,5.85
2023-05-10T22:55:31.809Z,4.53
2023-05-10T22:57:58.795Z,4.40
2023-05-10T23:00:25.698Z,3.22
2023-05-10T23:02:52.870Z,4.53
2023-05-10T23:05:19.865Z,4.57
2023-05-10T23:07:52.752Z,4.70
2023-05-10T23:10:20.145Z,4.25
2023-05-10T23:15:13.706Z,3.90
2023-05-10T23:17:40.560Z,3.67
2023-05-10T23:20:08.014Z,6.32
2023-05-10T23:25:02.141Z,5.03
2023-05-10T23:27:30.395Z,4.22
2023-05-10T23:29:57.652Z,4.95
2023-05-10T23:32:24.566Z,4.95
2023-05-10T23:34:51.429Z,4.95
2023-05-10T23:37:18.260Z,4.70
2023-05-10T23:39:45.105Z,5.15
2023-05-10T23:42:11.904Z,7.28
2023-05-10T23:44:38.700Z,3.90
2023-05-10T23:47:05.956Z,4.65
2023-05-10T23:49:32.706Z,4.85
2023-05-10T23:51:59.634Z,5.05
2023-05-10T23:54:26.416Z,4.05
2023-05-10T23:56:53.260Z,4.97
2023-05-10T23:59:20.020Z,8.18
